createdAt,value
2023-02-24T00:02:05.989Z,2.21
2023-02-24T00:04:36.105Z,2.21
2023-02-24T00:07:03.247Z,2.23
2023-02-24T00:09:31.508Z,2.32
2023-02-24T00:12:09.016Z,2.37
2023-02-24T00:14:38.791Z,2.33
2023-02-24T00:17:10.154Z,2.42
2023-02-24T00:19:38.185Z,2.40
2023-02-24T00:22:07.811Z,2.38
2023-02-24T00:24:35.935Z,2.46
2023-02-24T00:27:07.928Z,2.48
2023-02-24T00:29:37.657Z,2.52
2023-02-24T00:32:07.909Z,2.39
2023-02-24T00:34:37.958Z,2.48
2023-02-24T00:37:09.213Z,2.54
2023-02-24T00:39:37.346Z,2.50
2023-02-24T00:42:05.930Z,2.49
2023-02-24T00:44:46.669Z,2.50
2023-02-24T00:47:16.395Z,2.44
2023-02-24T00:49:44.172Z,2.40
2023-02-24T00:52:14.200Z,2.36
2023-02-24T00:54:42.139Z,2.31
2023-02-24T00:57:09.975Z,2.19
2023-02-24T00:59:38.228Z,2.21
2023-02-24T01:02:07.199Z,2.21
2023-02-24T01:04:35.048Z,2.18
2023-02-24T01:07:02.244Z,2.15
2023-02-24T01:09:32.294Z,2.14
2023-02-24T01:12:18.443Z,2.09
2023-02-24T01:14:48.006Z,2.08
2023-02-24T01:17:18.196Z,2.08
2023-02-24T01:19:47.222Z,2.05
2023-02-24T01:22:15.437Z,2.03
2023-02-24T01:24:44.162Z,1.96
2023-02-24T01:27:13.913Z,2.01
2023-02-24T01:29:41.041Z,1.97
2023-02-24T01:32:13.361Z,1.88
2023-02-24T01:34:42.360Z,1.87
2023-02-24T01:37:10.060Z,1.85
2023-02-24T01:39:37.567Z,1.84
2023-02-24T01:42:06.730Z,1.76
2023-02-24T01:44:33.732Z,1.76
2023-02-24T01:47:04.018Z,1.74
2023-02-24T01:49:49.176Z,1.66
2023-02-24T01:52:24.314Z,1.70
2023-02-24T01:55:09.190Z,1.71
2023-02-24T01:57:41.574Z,1.66
2023-02-24T02:00:11.889Z,1.67
2023-02-24T02:02:43.408Z,1.65
2023-02-24T02:05:11.579Z,1.66
2023-02-24T02:07:40.514Z,1.58
2023-02-24T02:10:09.686Z,1.60
2023-02-24T02:12:43.986Z,1.63
2023-02-24T02:15:14.391Z,1.63
2023-02-24T02:17:49.190Z,1.58
2023-02-24T02:20:48.055Z,1.63
2023-02-24T02:23:57.899Z,1.62
2023-02-24T02:26:57.961Z,1.59
2023-02-24T02:29:46.344Z,1.55
2023-02-24T02:32:52.401Z,1.50
2023-02-24T02:35:46.307Z,1.41
2023-02-24T02:38:31.459Z,1.37
2023-02-24T02:41:11.088Z,1.36
2023-02-24T02:43:44.985Z,1.34
2023-02-24T02:46:44.420Z,1.32
2023-02-24T02:49:35.878Z,1.19
2023-02-24T02:52:13.739Z,1.14
2023-02-24T02:54:54.619Z,1.11
2023-02-24T02:57:30.653Z,1.11
2023-02-24T03:00:13.268Z,1.11
2023-02-24T03:02:46.408Z,1.12
2023-02-24T03:05:17.497Z,1.11
2023-02-24T03:07:51.111Z,1.10
2023-02-24T03:10:27.874Z,1.08
2023-02-24T03:12:59.565Z,1.07
2023-02-24T03:15:30.368Z,1.13
2023-02-24T03:18:12.121Z,1.15
2023-02-24T03:20:48.318Z,1.15
2023-02-24T03:23:19.011Z,1.10
2023-02-24T03:25:58.802Z,1.18
2023-02-24T03:28:35.692Z,1.19
2023-02-24T03:31:11.063Z,1.19
2023-02-24T03:33:50.056Z,1.20
2023-02-24T03:36:17.260Z,1.17
2023-02-24T03:38:44.411Z,1.27
2023-02-24T03:41:11.803Z,1.26
2023-02-24T03:43:46.261Z,1.22
2023-02-24T03:46:18.951Z,1.32
2023-02-24T03:48:51.730Z,1.36
2023-02-24T03:51:23.282Z,1.37
2023-02-24T03:54:03.248Z,1.42
2023-02-24T03:57:24.351Z,1.50
2023-02-24T04:00:21.915Z,1.52
2023-02-24T04:03:01.161Z,1.54
2023-02-24T04:05:31.516Z,1.58
2023-02-24T04:08:07.529Z,1.61
2023-02-24T04:10:52.394Z,1.63
2023-02-24T04:13:23.642Z,1.67
2023-02-24T04:15:59.373Z,1.68
2023-02-24T04:18:31.910Z,1.68
2023-02-24T04:21:03.038Z,1.70
2023-02-24T04:23:33.988Z,1.67
2023-02-24T04:26:02.470Z,1.66
2023-02-24T04:28:31.324Z,1.65
2023-02-24T04:31:06.018Z,1.63
2023-02-24T04:33:33.639Z,1.72
2023-02-24T04:36:00.704Z,1.73
2023-02-24T04:38:28.099Z,1.68
2023-02-24T04:40:55.264Z,1.68
2023-02-24T04:43:22.414Z,1.66
2023-02-24T04:45:51.606Z,1.70
2023-02-24T04:48:20.209Z,1.73
2023-02-24T04:50:52.905Z,1.71
2023-02-24T04:53:26.971Z,1.70
2023-02-24T04:55:56.844Z,1.66
2023-02-24T04:58:28.883Z,1.62
2023-02-24T05:00:56.914Z,1.64
2023-02-24T05:03:28.348Z,1.64
2023-02-24T05:06:00.093Z,1.63
2023-02-24T05:08:30.370Z,1.68
2023-02-24T05:11:00.426Z,1.66
2023-02-24T05:13:31.841Z,1.67
2023-02-24T05:16:06.745Z,1.66
2023-02-24T05:18:37.157Z,1.71
2023-02-24T05:24:06.842Z,1.58
2023-02-24T05:26:36.060Z,1.64
2023-02-24T05:29:05.234Z,1.69
2023-02-24T05:31:33.118Z,1.67
2023-02-24T05:34:03.198Z,1.66
2023-02-24T05:36:33.337Z,1.63
2023-02-24T05:39:07.358Z,1.67
2023-02-24T05:41:38.613Z,1.67
2023-02-24T05:44:09.372Z,1.68
2023-02-24T05:46:41.758Z,1.68
2023-02-24T05:49:14.185Z,1.70
2023-02-24T05:51:54.478Z,1.69
2023-02-24T05:54:32.598Z,1.70
2023-02-24T05:57:13.918Z,1.76
2023-02-24T05:59:42.413Z,1.68
2023-02-24T06:02:12.914Z,1.72
2023-02-24T06:04:53.956Z,1.70
2023-02-24T06:07:27.392Z,1.73
2023-02-24T06:09:58.709Z,1.74
2023-02-24T06:12:34.181Z,1.78
2023-02-24T06:15:04.828Z,1.74
2023-02-24T06:17:31.861Z,1.80
2023-02-24T06:19:59.587Z,1.79
2023-02-24T06:22:27.805Z,1.85
2023-02-24T06:24:56.306Z,1.82
2023-02-24T06:27:24.921Z,1.85
2023-02-24T06:29:54.849Z,1.86
2023-02-24T06:32:25.216Z,1.93
2023-02-24T06:34:54.305Z,1.89
2023-02-24T06:37:23.093Z,1.96
2023-02-24T06:39:50.889Z,2.01
2023-02-24T06:42:18.159Z,1.99
2023-02-24T06:44:45.343Z,2.00
2023-02-24T06:47:14.361Z,2.05
2023-02-24T06:49:42.822Z,1.98
2023-02-24T06:52:11.531Z,2.07
2023-02-24T06:54:38.810Z,2.11
2023-02-24T06:57:05.901Z,2.11
2023-02-24T06:59:33.058Z,2.11
2023-02-24T07:02:03.388Z,2.12
2023-02-24T07:04:30.700Z,2.16
2023-02-24T07:07:03.115Z,2.27
2023-02-24T07:09:31.923Z,2.29
2023-02-24T07:12:02.416Z,2.30
2023-02-24T07:14:31.604Z,2.23
2023-02-24T07:16:59.849Z,2.33
2023-02-24T07:19:32.614Z,2.32
2023-02-24T07:22:03.579Z,2.36
2023-02-24T07:24:36.341Z,2.38
2023-02-24T07:27:07.065Z,2.44
2023-02-24T07:29:35.782Z,2.46
2023-02-24T07:32:05.898Z,2.53
2023-02-24T07:34:34.254Z,2.59
2023-02-24T07:37:07.789Z,2.61
2023-02-24T07:39:36.782Z,2.63
2023-02-24T07:42:04.818Z,2.61
2023-02-24T07:44:33.132Z,2.69
2023-02-24T07:47:00.684Z,2.71
2023-02-24T07:49:30.192Z,2.66
2023-02-24T07:51:58.058Z,2.74
2023-02-24T07:54:30.070Z,2.85
2023-02-24T07:56:59.224Z,2.93
2023-02-24T07:59:30.533Z,2.92
2023-02-24T08:01:57.960Z,2.95
2023-02-24T08:04:29.200Z,3.00
2023-02-24T08:07:03.228Z,3.00
2023-02-24T08:09:44.995Z,3.04
2023-02-24T08:12:21.489Z,2.97
2023-02-24T08:14:51.925Z,3.08
2023-02-24T08:17:27.220Z,3.11
2023-02-24T08:20:15.931Z,3.12
2023-02-24T08:22:46.597Z,3.11
2023-02-24T08:25:18.857Z,3.17
2023-02-24T08:28:12.992Z,3.30
2023-02-24T08:30:45.698Z,3.37
2023-02-24T08:33:19.268Z,3.43
2023-02-24T08:35:52.230Z,3.49
2023-02-24T08:38:25.901Z,3.52
2023-02-24T08:40:54.726Z,3.54
2023-02-24T08:43:29.353Z,3.61
2023-02-24T08:46:01.115Z,3.70
2023-02-24T08:48:37.062Z,3.70
2023-02-24T08:51:15.817Z,3.73
2023-02-24T08:53:44.603Z,3.74
2023-02-24T08:56:13.403Z,3.75
2023-02-24T08:58:49.210Z,3.83
2023-02-24T09:01:35.210Z,3.84
2023-02-24T09:04:07.345Z,3.91
2023-02-24T09:06:39.544Z,4.00
2023-02-24T09:09:20.825Z,3.91
2023-02-24T09:11:57.732Z,3.95
2023-02-24T09:14:29.222Z,4.05
2023-02-24T09:17:11.127Z,4.05
2023-02-24T09:19:46.839Z,4.20
2023-02-24T09:22:29.632Z,4.12
2023-02-24T09:25:18.348Z,4.18
2023-02-24T09:28:07.794Z,4.11
2023-02-24T09:30:38.677Z,4.17
2023-02-24T09:33:18.378Z,4.11
2023-02-24T09:35:50.248Z,4.18
2023-02-24T09:38:42.204Z,4.16
2023-02-24T09:42:07.604Z,4.18
2023-02-24T09:44:44.350Z,4.20
2023-02-24T09:47:32.482Z,4.23
2023-02-24T09:50:25.218Z,4.19
2023-02-24T09:53:14.315Z,4.14
2023-02-24T09:56:03.890Z,4.15
2023-02-24T09:58:49.484Z,4.17
2023-02-24T10:01:33.142Z,4.17
2023-02-24T10:04:28.154Z,4.20
2023-02-24T10:06:58.837Z,4.15
2023-02-24T10:09:34.469Z,4.16
2023-02-24T10:12:24.038Z,4.12
2023-02-24T10:15:17.300Z,4.17
2023-02-24T10:17:56.352Z,4.18
2023-02-24T10:20:31.164Z,4.15
2023-02-24T10:23:09.621Z,4.16
2023-02-24T10:25:56.341Z,4.24
2023-02-24T10:28:52.147Z,4.27
2023-02-24T10:31:30.532Z,4.30
2023-02-24T10:34:06.108Z,4.37
2023-02-24T10:36:37.882Z,4.41
2023-02-24T10:39:26.333Z,4.46
2023-02-24T10:41:57.730Z,4.47
2023-02-24T10:44:35.900Z,4.43
2023-02-24T10:47:13.714Z,4.51
2023-02-24T10:49:42.949Z,4.50
2023-02-24T10:52:33.386Z,4.52
2023-02-24T10:55:27.404Z,4.67
2023-02-24T10:58:07.274Z,4.72
2023-02-24T11:01:00.021Z,4.67
2023-02-24T11:03:47.989Z,4.73
2023-02-24T11:06:30.893Z,4.81
2023-02-24T11:09:18.766Z,4.74
2023-02-24T11:12:11.068Z,4.84
2023-02-24T11:15:08.367Z,4.86
2023-02-24T11:17:37.718Z,4.82
2023-02-24T11:20:10.991Z,4.98
2023-02-24T11:22:43.164Z,4.98
2023-02-24T11:25:18.861Z,5.03
2023-02-24T11:27:47.357Z,5.12
2023-02-24T11:30:43.314Z,5.20
2023-02-24T11:33:47.308Z,5.21
2023-02-24T11:36:54.464Z,5.32
2023-02-24T11:39:45.607Z,5.33
2023-02-24T11:42:19.996Z,5.38
2023-02-24T11:45:12.957Z,5.46
2023-02-24T11:47:45.327Z,5.50
2023-02-24T11:50:39.506Z,5.51
2023-02-24T11:53:18.825Z,5.50
2023-02-24T11:55:53.342Z,5.53
2023-02-24T11:58:28.076Z,5.67
2023-02-24T12:01:15.872Z,5.68
2023-02-24T12:03:50.452Z,5.62
2023-02-24T12:07:02.258Z,5.73
2023-02-24T12:09:48.231Z,5.81
2023-02-24T12:12:39.580Z,5.86
2023-02-24T12:15:34.061Z,5.91
2023-02-24T12:18:14.914Z,6.15
2023-02-24T12:20:52.747Z,6.19
2023-02-24T12:23:28.302Z,6.28
2023-02-24T12:26:24.089Z,6.34
2023-02-24T12:29:18.709Z,6.39
2023-02-24T12:32:01.667Z,6.54
2023-02-24T12:34:59.624Z,6.72
2023-02-24T12:37:48.441Z,6.78
2023-02-24T12:40:35.585Z,6.86
2023-02-24T12:43:15.743Z,6.97
2023-02-24T12:45:54.599Z,6.94
2023-02-24T12:48:48.946Z,6.95
2023-02-24T12:51:33.646Z,7.07
2023-02-24T12:54:13.344Z,7.04
2023-02-24T12:56:52.894Z,7.09
2023-02-24T12:59:25.279Z,7.05
2023-02-24T13:02:05.709Z,7.04
2023-02-24T13:04:54.274Z,7.03
2023-02-24T13:07:39.985Z,7.00
2023-02-24T13:10:29.729Z,6.96
2023-02-24T13:13:16.137Z,7.01
2023-02-24T13:15:54.822Z,7.13
2023-02-24T13:18:28.727Z,7.28
2023-02-24T13:21:09.854Z,7.37
2023-02-24T13:23:40.983Z,7.23
2023-02-24T13:26:08.874Z,7.21
2023-02-24T13:28:39.090Z,7.21
2023-02-24T13:31:11.936Z,7.22
2023-02-24T13:33:42.064Z,7.06
2023-02-24T13:36:16.757Z,7.06
2023-02-24T13:38:47.738Z,6.89
2023-02-24T13:41:27.618Z,6.66
2023-02-24T13:44:00.149Z,6.45
2023-02-24T13:46:56.379Z,6.27
2023-02-24T13:49:45.028Z,6.15
2023-02-24T13:52:39.733Z,6.18
2023-02-24T13:55:24.209Z,6.30
2023-02-24T13:58:01.246Z,6.39
2023-02-24T14:00:40.189Z,6.41
2023-02-24T14:03:18.475Z,6.33
2023-02-24T14:05:45.807Z,6.46
2023-02-24T14:08:22.697Z,6.62
2023-02-24T14:10:56.502Z,6.79
2023-02-24T14:13:27.736Z,6.90
2023-02-24T14:15:57.295Z,6.75
2023-02-24T14:18:28.963Z,6.59
2023-02-24T14:20:57.810Z,6.42
2023-02-24T14:23:31.640Z,6.25
2023-02-24T14:26:00.654Z,6.22
2023-02-24T14:28:36.907Z,6.14
2023-02-24T14:31:13.803Z,6.12
2023-02-24T14:33:43.734Z,6.14
2023-02-24T14:36:18.248Z,6.18
2023-02-24T14:38:45.361Z,6.18
2023-02-24T14:41:24.542Z,6.20
2023-02-24T14:43:52.396Z,6.23
2023-02-24T14:46:20.714Z,6.37
2023-02-24T14:48:56.456Z,6.64
2023-02-24T14:51:34.799Z,6.84
2023-02-24T14:54:07.727Z,7.07
2023-02-24T14:56:36.780Z,7.22
2023-02-24T14:59:17.042Z,7.22
2023-02-24T15:01:49.898Z,7.33
2023-02-24T15:04:43.633Z,7.68
2023-02-24T15:07:37.455Z,7.90
2023-02-24T15:10:06.838Z,8.03
2023-02-24T15:12:43.130Z,7.73
2023-02-24T15:15:23.398Z,7.47
2023-02-24T15:17:56.600Z,7.29
2023-02-24T15:20:38.441Z,7.30
2023-02-24T15:23:06.049Z,7.29
2023-02-24T15:25:46.716Z,7.29
2023-02-24T15:28:32.893Z,7.26
2023-02-24T15:31:15.706Z,7.10
2023-02-24T15:33:46.083Z,6.83
2023-02-24T15:36:20.018Z,6.70
2023-02-24T15:38:53.128Z,6.63
2023-02-24T15:41:20.373Z,6.11
2023-02-24T15:43:50.553Z,5.85
2023-02-24T15:46:23.728Z,5.73
2023-02-24T15:48:53.407Z,5.52
2023-02-24T15:51:53.441Z,5.49
2023-02-24T15:54:36.074Z,5.46
2023-02-24T15:57:05.384Z,5.42
2023-02-24T15:59:32.961Z,5.39
2023-02-24T16:02:00.125Z,5.33
2023-02-24T16:04:27.992Z,5.45
2023-02-24T16:06:57.741Z,5.52
2023-02-24T16:09:39.072Z,5.53
2023-02-24T16:12:12.189Z,5.54
2023-02-24T16:14:39.913Z,5.57
2023-02-24T16:17:17.274Z,5.61
2023-02-24T16:19:44.364Z,5.78
2023-02-24T16:22:11.484Z,5.83
2023-02-24T16:24:38.571Z,5.48
2023-02-24T16:27:06.241Z,5.22
2023-02-24T16:29:33.265Z,4.97
2023-02-24T16:32:00.591Z,4.87
2023-02-24T16:34:27.994Z,4.84
2023-02-24T16:36:55.073Z,4.83
2023-02-24T16:39:22.484Z,4.75
2023-02-24T16:41:49.515Z,4.70
2023-02-24T16:44:16.627Z,4.66
2023-02-24T16:46:45.212Z,4.73
2023-02-24T16:49:18.915Z,4.75
2023-02-24T16:51:45.963Z,4.77
2023-02-24T16:54:12.962Z,4.86
2023-02-24T16:56:39.986Z,4.92
2023-02-24T16:59:07.029Z,4.93
2023-02-24T17:01:34.403Z,4.88
2023-02-24T17:04:01.969Z,5.00
2023-02-24T17:06:29.590Z,4.95
2023-02-24T17:08:59.767Z,4.67
2023-02-24T17:11:28.444Z,4.65
2023-02-24T17:13:55.485Z,4.58
2023-02-24T17:16:23.937Z,4.52
2023-02-24T17:18:51.336Z,4.47
2023-02-24T17:21:18.695Z,4.46
2023-02-24T17:23:45.807Z,4.40
2023-02-24T17:26:14.870Z,4.48
2023-02-24T17:28:42.121Z,4.51
2023-02-24T17:31:09.328Z,4.44
2023-02-24T17:33:36.471Z,4.52
2023-02-24T17:36:03.811Z,4.53
2023-02-24T17:38:30.837Z,4.55
2023-02-24T17:40:57.894Z,4.49
2023-02-24T17:43:24.987Z,4.52
2023-02-24T17:45:53.411Z,4.62
2023-02-24T17:48:21.527Z,4.67
2023-02-24T17:50:48.954Z,4.72
2023-02-24T17:53:16.001Z,4.70
2023-02-24T17:55:59.718Z,4.79
2023-02-24T17:58:28.527Z,4.55
2023-02-24T18:00:55.928Z,4.17
2023-02-24T18:03:24.010Z,4.00
2023-02-24T18:06:05.290Z,3.96
2023-02-24T18:08:33.615Z,3.91
2023-02-24T18:11:00.955Z,3.88
2023-02-24T18:13:29.688Z,3.82
2023-02-24T18:15:57.877Z,3.78
2023-02-24T18:18:26.811Z,3.75
2023-02-24T18:20:54.996Z,3.72
2023-02-24T18:23:24.191Z,3.74
2023-02-24T18:25:51.210Z,3.77
2023-02-24T18:28:18.314Z,3.78
2023-02-24T18:30:45.418Z,3.73
2023-02-24T18:33:12.588Z,3.82
2023-02-24T18:35:40.027Z,3.88
2023-02-24T18:38:07.082Z,3.94
2023-02-24T18:40:34.279Z,3.96
2023-02-24T18:43:01.372Z,3.92
2023-02-24T18:45:28.390Z,3.89
2023-02-24T18:47:55.449Z,3.94
2023-02-24T18:50:25.185Z,3.91
2023-02-24T18:52:52.310Z,3.98
2023-02-24T18:55:19.767Z,3.98
2023-02-24T18:57:47.352Z,3.95
2023-02-24T19:00:15.539Z,3.96
2023-02-24T19:02:42.688Z,3.98
2023-02-24T19:05:10.224Z,4.00
2023-02-24T19:07:37.335Z,4.00
2023-02-24T19:10:05.202Z,3.94
2023-02-24T19:12:32.567Z,4.03
2023-02-24T19:14:59.624Z,3.96
2023-02-24T19:17:27.608Z,3.99
2023-02-24T19:19:55.057Z,4.00
2023-02-24T19:22:22.219Z,4.03
2023-02-24T19:24:49.359Z,4.06
2023-02-24T19:27:16.467Z,4.06
2023-02-24T19:29:43.475Z,4.07
2023-02-24T19:32:10.705Z,4.09
2023-02-24T19:34:37.861Z,4.15
2023-02-24T19:37:04.911Z,4.18
2023-02-24T19:39:32.021Z,4.25
2023-02-24T19:41:59.127Z,4.30
2023-02-24T19:44:26.826Z,4.34
2023-02-24T19:46:53.921Z,4.35
2023-02-24T19:49:20.965Z,4.34
2023-02-24T19:51:48.498Z,4.44
2023-02-24T19:54:16.143Z,4.53
2023-02-24T19:56:44.119Z,4.54
2023-02-24T19:59:11.502Z,4.62
2023-02-24T20:01:38.602Z,4.59
2023-02-24T20:04:05.941Z,4.66
2023-02-24T20:06:39.352Z,4.71
2023-02-24T20:09:15.550Z,4.73
2023-02-24T20:11:44.696Z,4.73
2023-02-24T20:14:13.298Z,4.83
2023-02-24T20:16:42.048Z,4.88
2023-02-24T20:19:11.408Z,4.81
2023-02-24T20:21:39.344Z,4.86
2023-02-24T20:24:13.733Z,4.81
2023-02-24T20:26:43.024Z,4.85
2023-02-24T20:29:11.433Z,4.90
2023-02-24T20:31:39.759Z,4.88
2023-02-24T20:34:08.895Z,4.86
2023-02-24T20:36:36.529Z,4.88
2023-02-24T20:39:06.511Z,4.79
2023-02-24T20:41:34.092Z,4.84
2023-02-24T20:44:01.200Z,4.83
2023-02-24T20:46:31.621Z,4.82
2023-02-24T20:49:05.282Z,4.81
2023-02-24T20:51:34.494Z,4.82
2023-02-24T20:54:01.724Z,4.79
2023-02-24T20:56:32.873Z,4.72
2023-02-24T20:59:04.791Z,4.73
2023-02-24T21:01:32.696Z,4.74
2023-02-24T21:04:00.439Z,4.68
2023-02-24T21:06:28.757Z,4.70
2023-02-24T21:08:57.640Z,4.64
2023-02-24T21:11:25.342Z,4.69
2023-02-24T21:13:52.472Z,4.62
2023-02-24T21:16:21.310Z,4.66
2023-02-24T21:18:51.539Z,4.58
2023-02-24T21:21:20.640Z,4.53
2023-02-24T21:23:59.574Z,4.32
2023-02-24T21:26:29.092Z,4.28
2023-02-24T21:28:59.181Z,4.24
2023-02-24T21:31:27.874Z,4.05
2023-02-24T21:33:56.731Z,3.99
2023-02-24T21:36:26.237Z,3.94
2023-02-24T21:38:54.952Z,3.91
2023-02-24T21:41:23.679Z,3.98
2023-02-24T21:43:55.392Z,3.94
2023-02-24T21:46:27.986Z,3.88
2023-02-24T21:48:57.854Z,3.91
2023-02-24T21:51:27.769Z,3.82
2023-02-24T21:53:56.657Z,3.88
2023-02-24T21:56:29.596Z,3.78
2023-02-24T21:59:02.675Z,3.72
2023-02-24T22:01:34.683Z,3.64
2023-02-24T22:04:04.692Z,3.58
2023-02-24T22:06:34.187Z,3.57
2023-02-24T22:09:03.844Z,3.54
2023-02-24T22:11:32.881Z,3.45
2023-02-24T22:13:59.987Z,3.44
2023-02-24T22:16:28.638Z,3.39
2023-02-24T22:18:56.731Z,3.43
2023-02-24T22:21:26.697Z,3.51
2023-02-24T22:23:57.719Z,3.59
2023-02-24T22:26:27.862Z,3.59
2023-02-24T22:28:55.426Z,3.61
2023-02-24T22:31:28.495Z,3.61
2023-02-24T22:33:56.713Z,3.60
2023-02-24T22:36:27.862Z,3.59
2023-02-24T22:38:57.725Z,3.57
2023-02-24T22:41:33.485Z,3.53
2023-02-24T22:44:04.276Z,3.47
2023-02-24T22:46:34.604Z,3.39
2023-02-24T22:49:02.292Z,3.40
2023-02-24T22:51:29.652Z,3.36
2023-02-24T22:53:58.035Z,3.31
2023-02-24T22:56:28.611Z,3.33
2023-02-24T22:58:56.785Z,3.34
2023-02-24T23:01:32.763Z,3.29
2023-02-24T23:04:01.703Z,3.30
2023-02-24T23:06:29.394Z,3.28
2023-02-24T23:08:59.215Z,3.33
2023-02-24T23:11:39.262Z,3.34
2023-02-24T23:14:10.062Z,3.31
2023-02-24T23:16:38.901Z,3.32
2023-02-24T23:19:13.009Z,3.31
2023-02-24T23:21:45.457Z,3.21
2023-02-24T23:24:14.837Z,3.22
2023-02-24T23:26:47.705Z,3.18
2023-02-24T23:29:17.254Z,3.23
2023-02-24T23:31:44.669Z,3.26
2023-02-24T23:34:12.246Z,3.26
2023-02-24T23:36:43.502Z,3.23
2023-02-24T23:39:12.865Z,3.26
2023-02-24T23:41:43.983Z,3.24
2023-02-24T23:44:12.292Z,3.30
2023-02-24T23:46:39.452Z,3.29
2023-02-24T23:49:06.487Z,3.40
2023-02-24T23:51:50.097Z,3.41
2023-02-24T23:54:18.138Z,3.45
2023-02-24T23:56:46.393Z,3.53
2023-02-24T23:59:13.821Z,3.53
